sensor_id;sensor_type;location;lat;lon;timestamp;P1;durP1;ratioP1;P2;durP2;ratioP2
74541;SDS011;63015;45.378;20.360;2023-08-07T00:01:19;1.77;;;0.40;;
74541;SDS011;63015;45.378;20.360;2023-08-07T00:03:19;2.85;;;0.52;;
74541;SDS011;63015;45.378;20.360;2023-08-07T00:05:20;3.00;;;0.95;;
74541;SDS011;63015;45.378;20.360;2023-08-07T00:07:21;2.95;;;0.63;;
74541;SDS011;63015;45.378;20.360;2023-08-07T00:09:22;3.63;;;0.63;;
74541;SDS011;63015;45.378;20.360;2023-08-07T00:11:22;4.00;;;0.55;;
74541;SDS011;63015;45.378;20.360;2023-08-07T00:13:23;1.95;;;0.55;;
74541;SDS011;63015;45.378;20.360;2023-08-07T00:15:23;2.85;;;0.50;;
74541;SDS011;63015;45.378;20.360;2023-08-07T00:17:24;2.55;;;0.50;;
74541;SDS011;63015;45.378;20.360;2023-08-07T00:19:24;3.20;;;0.50;;
74541;SDS011;63015;45.378;20.360;2023-08-07T00:21:25;2.03;;;0.60;;
74541;SDS011;63015;45.378;20.360;2023-08-07T00:23:25;1.50;;;0.52;;
74541;SDS011;63015;45.378;20.360;2023-08-07T00:25:26;4.03;;;0.65;;
74541;SDS011;63015;45.378;20.360;2023-08-07T00:27:27;1.73;;;0.50;;
74541;SDS011;63015;45.378;20.360;2023-08-07T00:29:28;1.67;;;0.52;;
74541;SDS011;63015;45.378;20.360;2023-08-07T00:31:28;3.15;;;0.80;;
74541;SDS011;63015;45.378;20.360;2023-08-07T00:33:31;2.13;;;0.50;;
74541;SDS011;63015;45.378;20.360;2023-08-07T00:35:32;3.80;;;0.63;;
74541;SDS011;63015;45.378;20.360;2023-08-07T00:37:32;2.97;;;0.60;;
74541;SDS011;63015;45.378;20.360;2023-08-07T00:39:35;2.20;;;0.55;;
74541;SDS011;63015;45.378;20.360;2023-08-07T00:41:35;2.60;;;0.60;;
74541;SDS011;63015;45.378;20.360;2023-08-07T00:43:36;1.98;;;0.65;;
74541;SDS011;63015;45.378;20.360;2023-08-07T00:45:38;2.97;;;0.60;;
74541;SDS011;63015;45.378;20.360;2023-08-07T00:47:45;1.98;;;0.57;;
74541;SDS011;63015;45.378;20.360;2023-08-07T00:49:46;3.42;;;0.63;;
74541;SDS011;63015;45.378;20.360;2023-08-07T00:51:48;1.75;;;0.63;;
74541;SDS011;63015;45.378;20.360;2023-08-07T00:53:49;4.72;;;0.63;;
74541;SDS011;63015;45.378;20.360;2023-08-07T00:55:49;1.92;;;0.52;;
74541;SDS011;63015;45.378;20.360;2023-08-07T00:57:50;2.20;;;0.60;;
74541;SDS011;63015;45.378;20.360;2023-08-07T00:59:51;2.17;;;0.57;;
74541;SDS011;63015;45.378;20.360;2023-08-07T01:01:52;3.20;;;0.55;;
74541;SDS011;63015;45.378;20.360;2023-08-07T01:03:53;1.88;;;0.52;;
74541;SDS011;63015;45.378;20.360;2023-08-07T01:05:54;3.45;;;0.70;;
74541;SDS011;63015;45.378;20.360;2023-08-07T01:07:55;2.05;;;0.60;;
74541;SDS011;63015;45.378;20.360;2023-08-07T01:09:56;2.42;;;0.65;;
74541;SDS011;63015;45.378;20.360;2023-08-07T01:14:35;8.60;;;0.85;;
74541;SDS011;63015;45.378;20.360;2023-08-07T01:16:45;2.72;;;0.70;;
74541;SDS011;63015;45.378;20.360;2023-08-07T01:18:50;3.83;;;0.77;;
74541;SDS011;63015;45.378;20.360;2023-08-07T01:20:52;2.30;;;0.80;;
74541;SDS011;63015;45.378;20.360;2023-08-07T01:22:52;5.03;;;0.82;;
74541;SDS011;63015;45.378;20.360;2023-08-07T01:24:53;2.58;;;1.00;;
74541;SDS011;63015;45.378;20.360;2023-08-07T01:26:54;2.50;;;0.90;;
74541;SDS011;63015;45.378;20.360;2023-08-07T01:29:06;2.60;;;0.70;;
74541;SDS011;63015;45.378;20.360;2023-08-07T01:31:20;4.05;;;0.70;;
74541;SDS011;63015;45.378;20.360;2023-08-07T01:33:31;2.90;;;0.70;;
74541;SDS011;63015;45.378;20.360;2023-08-07T01:35:36;2.30;;;0.90;;
74541;SDS011;63015;45.378;20.360;2023-08-07T01:37:42;2.65;;;0.80;;
74541;SDS011;63015;45.378;20.360;2023-08-07T01:39:45;2.80;;;0.63;;
74541;SDS011;63015;45.378;20.360;2023-08-07T01:41:48;2.90;;;0.70;;
74541;SDS011;63015;45.378;20.360;2023-08-07T01:43:49;2.75;;;0.93;;
74541;SDS011;63015;45.378;20.360;2023-08-07T01:45:50;2.40;;;0.73;;
74541;SDS011;63015;45.378;20.360;2023-08-07T01:47:50;2.58;;;0.70;;
74541;SDS011;63015;45.378;20.360;2023-08-07T01:49:52;2.38;;;0.52;;
74541;SDS011;63015;45.378;20.360;2023-08-07T01:51:53;2.30;;;0.85;;
74541;SDS011;63015;45.378;20.360;2023-08-07T01:53:54;3.72;;;0.90;;
74541;SDS011;63015;45.378;20.360;2023-08-07T01:55:54;2.97;;;0.85;;
74541;SDS011;63015;45.378;20.360;2023-08-07T01:57:55;4.40;;;0.80;;
74541;SDS011;63015;45.378;20.360;2023-08-07T01:59:56;2.75;;;0.90;;
74541;SDS011;63015;45.378;20.360;2023-08-07T02:01:56;2.97;;;0.80;;
74541;SDS011;63015;45.378;20.360;2023-08-07T02:03:57;2.50;;;0.60;;
74541;SDS011;63015;45.378;20.360;2023-08-07T02:05:59;3.15;;;0.70;;
74541;SDS011;63015;45.378;20.360;2023-08-07T02:08:02;4.38;;;1.10;;
74541;SDS011;63015;45.378;20.360;2023-08-07T02:10:02;3.33;;;1.02;;
74541;SDS011;63015;45.378;20.360;2023-08-07T02:12:03;3.13;;;1.23;;
74541;SDS011;63015;45.378;20.360;2023-08-07T02:14:04;2.75;;;0.80;;
74541;SDS011;63015;45.378;20.360;2023-08-07T02:16:05;2.13;;;0.60;;
74541;SDS011;63015;45.378;20.360;2023-08-07T02:18:05;4.15;;;0.80;;
74541;SDS011;63015;45.378;20.360;2023-08-07T02:20:06;4.13;;;0.80;;
74541;SDS011;63015;45.378;20.360;2023-08-07T02:22:07;2.58;;;0.80;;
74541;SDS011;63015;45.378;20.360;2023-08-07T02:24:08;2.97;;;0.80;;
74541;SDS011;63015;45.378;20.360;2023-08-07T02:26:09;4.13;;;0.75;;
74541;SDS011;63015;45.378;20.360;2023-08-07T02:28:10;3.28;;;0.90;;
74541;SDS011;63015;45.378;20.360;2023-08-07T02:30:10;3.95;;;0.80;;
74541;SDS011;63015;45.378;20.360;2023-08-07T02:32:11;4.22;;;1.38;;
74541;SDS011;63015;45.378;20.360;2023-08-07T02:34:12;2.83;;;0.80;;
74541;SDS011;63015;45.378;20.360;2023-08-07T02:36:13;3.50;;;0.82;;
74541;SDS011;63015;45.378;20.360;2023-08-07T02:38:13;5.22;;;0.90;;
74541;SDS011;63015;45.378;20.360;2023-08-07T02:40:14;2.47;;;0.70;;
74541;SDS011;63015;45.378;20.360;2023-08-07T02:42:17;2.42;;;1.20;;
74541;SDS011;63015;45.378;20.360;2023-08-07T02:44:18;2.67;;;0.80;;
74541;SDS011;63015;45.378;20.360;2023-08-07T02:46:20;2.83;;;0.93;;
74541;SDS011;63015;45.378;20.360;2023-08-07T02:48:20;3.40;;;0.77;;
74541;SDS011;63015;45.378;20.360;2023-08-07T02:50:21;5.45;;;0.90;;
74541;SDS011;63015;45.378;20.360;2023-08-07T02:52:21;4.30;;;0.80;;
74541;SDS011;63015;45.378;20.360;2023-08-07T02:54:22;2.72;;;1.15;;
74541;SDS011;63015;45.378;20.360;2023-08-07T02:56:23;4.72;;;1.00;;
74541;SDS011;63015;45.378;20.360;2023-08-07T02:58:23;2.63;;;0.73;;
74541;SDS011;63015;45.378;20.360;2023-08-07T03:00:24;2.53;;;0.73;;
74541;SDS011;63015;45.378;20.360;2023-08-07T03:02:25;3.13;;;0.80;;
74541;SDS011;63015;45.378;20.360;2023-08-07T03:04:25;2.85;;;0.90;;
74541;SDS011;63015;45.378;20.360;2023-08-07T03:06:26;2.55;;;0.75;;
74541;SDS011;63015;45.378;20.360;2023-08-07T03:08:26;3.03;;;0.93;;
74541;SDS011;63015;45.378;20.360;2023-08-07T03:10:27;4.00;;;0.90;;
74541;SDS011;63015;45.378;20.360;2023-08-07T03:12:27;4.05;;;0.93;;
74541;SDS011;63015;45.378;20.360;2023-08-07T03:14:28;2.70;;;1.00;;
74541;SDS011;63015;45.378;20.360;2023-08-07T03:16:29;3.20;;;1.30;;
74541;SDS011;63015;45.378;20.360;2023-08-07T03:18:29;2.75;;;1.10;;
74541;SDS011;63015;45.378;20.360;2023-08-07T03:20:30;2.63;;;0.80;;
74541;SDS011;63015;45.378;20.360;2023-08-07T03:22:31;2.88;;;1.10;;
74541;SDS011;63015;45.378;20.360;2023-08-07T03:24:32;3.63;;;1.25;;
74541;SDS011;63015;45.378;20.360;2023-08-07T03:26:32;3.03;;;1.00;;
74541;SDS011;63015;45.378;20.360;2023-08-07T03:28:33;4.07;;;1.30;;
74541;SDS011;63015;45.378;20.360;2023-08-07T03:30:34;2.90;;;1.00;;
74541;SDS011;63015;45.378;20.360;2023-08-07T03:32:35;2.72;;;1.27;;
74541;SDS011;63015;45.378;20.360;2023-08-07T03:34:35;2.88;;;1.02;;
74541;SDS011;63015;45.378;20.360;2023-08-07T03:36:36;5.07;;;1.13;;
74541;SDS011;63015;45.378;20.360;2023-08-07T03:38:37;5.22;;;0.90;;
74541;SDS011;63015;45.378;20.360;2023-08-07T03:40:38;4.60;;;0.98;;
74541;SDS011;63015;45.378;20.360;2023-08-07T03:42:40;3.60;;;1.20;;
74541;SDS011;63015;45.378;20.360;2023-08-07T03:44:43;6.88;;;1.05;;
74541;SDS011;63015;45.378;20.360;2023-08-07T03:46:43;2.95;;;1.10;;
74541;SDS011;63015;45.378;20.360;2023-08-07T03:48:44;3.80;;;1.73;;
74541;SDS011;63015;45.378;20.360;2023-08-07T03:50:44;2.90;;;1.10;;
74541;SDS011;63015;45.378;20.360;2023-08-07T03:52:46;4.70;;;1.88;;
74541;SDS011;63015;45.378;20.360;2023-08-07T03:54:46;3.17;;;1.55;;
74541;SDS011;63015;45.378;20.360;2023-08-07T03:56:47;3.72;;;1.25;;
74541;SDS011;63015;45.378;20.360;2023-08-07T03:58:48;4.07;;;1.20;;
74541;SDS011;63015;45.378;20.360;2023-08-07T04:00:51;4.18;;;1.23;;
74541;SDS011;63015;45.378;20.360;2023-08-07T04:02:52;4.82;;;1.27;;
74541;SDS011;63015;45.378;20.360;2023-08-07T04:04:53;3.17;;;1.63;;
74541;SDS011;63015;45.378;20.360;2023-08-07T04:06:53;3.33;;;1.23;;
74541;SDS011;63015;45.378;20.360;2023-08-07T04:08:54;3.50;;;0.98;;
74541;SDS011;63015;45.378;20.360;2023-08-07T04:11:01;2.97;;;0.95;;
74541;SDS011;63015;45.378;20.360;2023-08-07T04:13:03;3.55;;;0.93;;
74541;SDS011;63015;45.378;20.360;2023-08-07T04:15:03;3.95;;;1.05;;
74541;SDS011;63015;45.378;20.360;2023-08-07T04:17:05;3.80;;;1.00;;
74541;SDS011;63015;45.378;20.360;2023-08-07T04:19:05;5.43;;;1.30;;
74541;SDS011;63015;45.378;20.360;2023-08-07T04:21:07;3.35;;;1.10;;
74541;SDS011;63015;45.378;20.360;2023-08-07T04:23:08;3.05;;;1.10;;
74541;SDS011;63015;45.378;20.360;2023-08-07T04:25:09;3.72;;;1.13;;
74541;SDS011;63015;45.378;20.360;2023-08-07T04:27:10;3.60;;;1.20;;
74541;SDS011;63015;45.378;20.360;2023-08-07T04:29:11;4.32;;;1.20;;
74541;SDS011;63015;45.378;20.360;2023-08-07T04:31:12;3.55;;;1.42;;
74541;SDS011;63015;45.378;20.360;2023-08-07T04:33:12;5.05;;;1.50;;
74541;SDS011;63015;45.378;20.360;2023-08-07T04:35:13;3.83;;;1.35;;
74541;SDS011;63015;45.378;20.360;2023-08-07T04:37:14;5.28;;;1.33;;
74541;SDS011;63015;45.378;20.360;2023-08-07T04:39:14;4.05;;;1.45;;
74541;SDS011;63015;45.378;20.360;2023-08-07T04:41:15;2.90;;;1.10;;
74541;SDS011;63015;45.378;20.360;2023-08-07T04:43:16;4.22;;;1.00;;
74541;SDS011;63015;45.378;20.360;2023-08-07T04:45:17;2.55;;;0.80;;
74541;SDS011;63015;45.378;20.360;2023-08-07T04:47:18;3.42;;;1.10;;
74541;SDS011;63015;45.378;20.360;2023-08-07T04:49:19;2.58;;;0.88;;
74541;SDS011;63015;45.378;20.360;2023-08-07T04:51:19;4.38;;;1.05;;
74541;SDS011;63015;45.378;20.360;2023-08-07T04:53:20;2.92;;;0.95;;
74541;SDS011;63015;45.378;20.360;2023-08-07T04:55:20;4.45;;;1.30;;
74541;SDS011;63015;45.378;20.360;2023-08-07T04:57:21;4.60;;;1.20;;
74541;SDS011;63015;45.378;20.360;2023-08-07T04:59:22;3.97;;;1.30;;
74541;SDS011;63015;45.378;20.360;2023-08-07T05:01:22;3.22;;;1.10;;
74541;SDS011;63015;45.378;20.360;2023-08-07T05:03:23;4.10;;;1.17;;
74541;SDS011;63015;45.378;20.360;2023-08-07T05:05:24;4.85;;;1.42;;
74541;SDS011;63015;45.378;20.360;2023-08-07T05:07:25;3.83;;;1.02;;
74541;SDS011;63015;45.378;20.360;2023-08-07T05:09:26;3.60;;;1.50;;
74541;SDS011;63015;45.378;20.360;2023-08-07T05:11:26;4.00;;;1.63;;
74541;SDS011;63015;45.378;20.360;2023-08-07T05:13:27;3.35;;;1.50;;
74541;SDS011;63015;45.378;20.360;2023-08-07T05:15:27;5.13;;;1.98;;
74541;SDS011;63015;45.378;20.360;2023-08-07T05:17:31;4.13;;;1.70;;
74541;SDS011;63015;45.378;20.360;2023-08-07T05:19:31;7.32;;;1.60;;
74541;SDS011;63015;45.378;20.360;2023-08-07T05:21:32;3.05;;;1.60;;
74541;SDS011;63015;45.378;20.360;2023-08-07T05:23:33;3.08;;;1.50;;
74541;SDS011;63015;45.378;20.360;2023-08-07T05:25:33;3.60;;;1.35;;
74541;SDS011;63015;45.378;20.360;2023-08-07T05:27:34;4.63;;;1.60;;
74541;SDS011;63015;45.378;20.360;2023-08-07T05:29:36;5.18;;;1.63;;
74541;SDS011;63015;45.378;20.360;2023-08-07T05:31:45;5.32;;;1.60;;
74541;SDS011;63015;45.378;20.360;2023-08-07T05:33:46;4.10;;;1.30;;
74541;SDS011;63015;45.378;20.360;2023-08-07T05:35:47;3.08;;;1.10;;
74541;SDS011;63015;45.378;20.360;2023-08-07T05:37:47;3.15;;;0.98;;
74541;SDS011;63015;45.378;20.360;2023-08-07T05:39:48;3.50;;;1.17;;
74541;SDS011;63015;45.378;20.360;2023-08-07T05:41:48;3.00;;;0.77;;
74541;SDS011;63015;45.378;20.360;2023-08-07T05:43:49;3.33;;;1.00;;
74541;SDS011;63015;45.378;20.360;2023-08-07T05:45:49;3.25;;;0.90;;
74541;SDS011;63015;45.378;20.360;2023-08-07T05:47:51;4.82;;;0.85;;
74541;SDS011;63015;45.378;20.360;2023-08-07T05:49:51;2.95;;;0.63;;
74541;SDS011;63015;45.378;20.360;2023-08-07T05:51:52;2.97;;;0.73;;
74541;SDS011;63015;45.378;20.360;2023-08-07T05:53:53;3.35;;;1.00;;
74541;SDS011;63015;45.378;20.360;2023-08-07T05:55:54;4.57;;;0.90;;
74541;SDS011;63015;45.378;20.360;2023-08-07T05:57:55;2.40;;;0.80;;
74541;SDS011;63015;45.378;20.360;2023-08-07T05:59:55;4.03;;;0.80;;
74541;SDS011;63015;45.378;20.360;2023-08-07T06:01:56;3.22;;;0.80;;
74541;SDS011;63015;45.378;20.360;2023-08-07T06:03:57;2.40;;;0.65;;
74541;SDS011;63015;45.378;20.360;2023-08-07T06:05:58;3.47;;;0.75;;
74541;SDS011;63015;45.378;20.360;2023-08-07T06:07:58;2.10;;;0.80;;
74541;SDS011;63015;45.378;20.360;2023-08-07T06:09:59;1.88;;;0.68;;
74541;SDS011;63015;45.378;20.360;2023-08-07T06:11:59;2.88;;;0.70;;
74541;SDS011;63015;45.378;20.360;2023-08-07T06:14:00;1.98;;;0.63;;
74541;SDS011;63015;45.378;20.360;2023-08-07T06:16:01;1.70;;;0.40;;
74541;SDS011;63015;45.378;20.360;2023-08-07T06:18:02;2.70;;;0.52;;
74541;SDS011;63015;45.378;20.360;2023-08-07T06:20:02;1.65;;;0.68;;
74541;SDS011;63015;45.378;20.360;2023-08-07T06:22:05;1.50;;;0.52;;
74541;SDS011;63015;45.378;20.360;2023-08-07T06:24:05;2.17;;;0.50;;
74541;SDS011;63015;45.378;20.360;2023-08-07T06:26:06;2.58;;;0.50;;
74541;SDS011;63015;45.378;20.360;2023-08-07T06:28:08;3.13;;;0.50;;
74541;SDS011;63015;45.378;20.360;2023-08-07T06:30:09;1.52;;;0.50;;
74541;SDS011;63015;45.378;20.360;2023-08-07T06:32:10;1.40;;;0.30;;
74541;SDS011;63015;45.378;20.360;2023-08-07T06:34:10;2.03;;;0.38;;
74541;SDS011;63015;45.378;20.360;2023-08-07T06:36:11;2.17;;;0.70;;
74541;SDS011;63015;45.378;20.360;2023-08-07T06:38:12;2.00;;;0.52;;
74541;SDS011;63015;45.378;20.360;2023-08-07T06:40:12;1.80;;;0.40;;
74541;SDS011;63015;45.378;20.360;2023-08-07T06:42:13;1.42;;;0.52;;
74541;SDS011;63015;45.378;20.360;2023-08-07T06:44:16;2.72;;;0.40;;
74541;SDS011;63015;45.378;20.360;2023-08-07T06:46:17;1.55;;;0.43;;
74541;SDS011;63015;45.378;20.360;2023-08-07T06:48:18;1.38;;;0.40;;
74541;SDS011;63015;45.378;20.360;2023-08-07T06:50:19;1.95;;;0.47;;
74541;SDS011;63015;45.378;20.360;2023-08-07T06:52:19;1.95;;;0.52;;
74541;SDS011;63015;45.378;20.360;2023-08-07T06:54:20;1.30;;;0.35;;
74541;SDS011;63015;45.378;20.360;2023-08-07T06:56:20;2.03;;;0.30;;
74541;SDS011;63015;45.378;20.360;2023-08-07T06:58:21;1.98;;;0.35;;
74541;SDS011;63015;45.378;20.360;2023-08-07T07:00:22;1.40;;;0.45;;
74541;SDS011;63015;45.378;20.360;2023-08-07T07:02:22;1.48;;;0.32;;
74541;SDS011;63015;45.378;20.360;2023-08-07T07:04:23;1.20;;;0.28;;
74541;SDS011;63015;45.378;20.360;2023-08-07T07:06:23;1.50;;;0.35;;
74541;SDS011;63015;45.378;20.360;2023-08-07T07:08:26;2.95;;;1.05;;
74541;SDS011;63015;45.378;20.360;2023-08-07T07:10:26;1.52;;;0.40;;
74541;SDS011;63015;45.378;20.360;2023-08-07T07:12:27;2.97;;;0.50;;
74541;SDS011;63015;45.378;20.360;2023-08-07T07:14:27;2.08;;;0.60;;
74541;SDS011;63015;45.378;20.360;2023-08-07T07:16:28;2.00;;;0.73;;
74541;SDS011;63015;45.378;20.360;2023-08-07T07:18:29;2.30;;;0.65;;
74541;SDS011;63015;45.378;20.360;2023-08-07T07:20:29;2.17;;;0.50;;
74541;SDS011;63015;45.378;20.360;2023-08-07T07:22:30;3.03;;;0.70;;
74541;SDS011;63015;45.378;20.360;2023-08-07T07:24:30;3.42;;;0.50;;
74541;SDS011;63015;45.378;20.360;2023-08-07T07:26:31;2.47;;;0.63;;
74541;SDS011;63015;45.378;20.360;2023-08-07T07:28:32;1.40;;;0.43;;
74541;SDS011;63015;45.378;20.360;2023-08-07T07:30:32;1.08;;;0.43;;
74541;SDS011;63015;45.378;20.360;2023-08-07T07:32:33;1.70;;;0.68;;
74541;SDS011;63015;45.378;20.360;2023-08-07T07:34:33;1.58;;;0.57;;
74541;SDS011;63015;45.378;20.360;2023-08-07T07:36:34;1.63;;;0.75;;
74541;SDS011;63015;45.378;20.360;2023-08-07T07:38:35;2.10;;;0.52;;
74541;SDS011;63015;45.378;20.360;2023-08-07T07:40:35;1.80;;;0.43;;
74541;SDS011;63015;45.378;20.360;2023-08-07T07:42:39;1.50;;;0.40;;
74541;SDS011;63015;45.378;20.360;2023-08-07T07:44:40;1.52;;;0.38;;
74541;SDS011;63015;45.378;20.360;2023-08-07T07:46:42;1.40;;;0.30;;
74541;SDS011;63015;45.378;20.360;2023-08-07T07:48:42;2.88;;;0.77;;
74541;SDS011;63015;45.378;20.360;2023-08-07T07:50:43;1.63;;;0.60;;
74541;SDS011;63015;45.378;20.360;2023-08-07T07:52:43;1.58;;;0.45;;
74541;SDS011;63015;45.378;20.360;2023-08-07T07:54:44;1.13;;;0.52;;
74541;SDS011;63015;45.378;20.360;2023-08-07T07:56:44;1.33;;;0.40;;
74541;SDS011;63015;45.378;20.360;2023-08-07T07:58:45;1.73;;;0.60;;
74541;SDS011;63015;45.378;20.360;2023-08-07T08:00:46;2.70;;;0.52;;
74541;SDS011;63015;45.378;20.360;2023-08-07T08:02:47;1.40;;;0.60;;
74541;SDS011;63015;45.378;20.360;2023-08-07T08:04:47;2.58;;;0.52;;
74541;SDS011;63015;45.378;20.360;2023-08-07T08:06:48;10.27;;;0.80;;
74541;SDS011;63015;45.378;20.360;2023-08-07T08:08:48;1.58;;;0.40;;
74541;SDS011;63015;45.378;20.360;2023-08-07T08:10:49;1.70;;;0.70;;
74541;SDS011;63015;45.378;20.360;2023-08-07T08:12:51;2.97;;;0.57;;
74541;SDS011;63015;45.378;20.360;2023-08-07T08:14:51;1.52;;;0.40;;
74541;SDS011;63015;45.378;20.360;2023-08-07T08:16:52;1.00;;;0.30;;
74541;SDS011;63015;45.378;20.360;2023-08-07T08:18:52;1.50;;;0.30;;
74541;SDS011;63015;45.378;20.360;2023-08-07T08:20:53;1.65;;;0.43;;
74541;SDS011;63015;45.378;20.360;2023-08-07T08:22:54;2.58;;;0.40;;
74541;SDS011;63015;45.378;20.360;2023-08-07T08:24:54;1.50;;;0.50;;
74541;SDS011;63015;45.378;20.360;2023-08-07T08:26:55;1.38;;;0.40;;
74541;SDS011;63015;45.378;20.360;2023-08-07T08:28:56;1.80;;;0.40;;
74541;SDS011;63015;45.378;20.360;2023-08-07T08:30:56;2.65;;;0.40;;
74541;SDS011;63015;45.378;20.360;2023-08-07T08:32:57;1.30;;;0.43;;
74541;SDS011;63015;45.378;20.360;2023-08-07T08:34:57;2.45;;;0.60;;
74541;SDS011;63015;45.378;20.360;2023-08-07T08:36:58;3.72;;;0.52;;
74541;SDS011;63015;45.378;20.360;2023-08-07T08:38:59;1.77;;;0.77;;
74541;SDS011;63015;45.378;20.360;2023-08-07T08:41:00;3.88;;;0.75;;
74541;SDS011;63015;45.378;20.360;2023-08-07T08:43:02;1.70;;;0.80;;
74541;SDS011;63015;45.378;20.360;2023-08-07T08:45:05;1.60;;;0.50;;
74541;SDS011;63015;45.378;20.360;2023-08-07T08:47:10;1.52;;;0.55;;
74541;SDS011;63015;45.378;20.360;2023-08-07T08:49:11;2.00;;;0.50;;
74541;SDS011;63015;45.378;20.360;2023-08-07T08:51:20;1.35;;;0.50;;
74541;SDS011;63015;45.378;20.360;2023-08-07T08:53:22;1.95;;;0.60;;
74541;SDS011;63015;45.378;20.360;2023-08-07T08:55:23;2.35;;;0.57;;
74541;SDS011;63015;45.378;20.360;2023-08-07T08:57:25;2.85;;;0.55;;
74541;SDS011;63015;45.378;20.360;2023-08-07T08:59:27;1.30;;;0.30;;
74541;SDS011;63015;45.378;20.360;2023-08-07T09:01:27;1.60;;;0.40;;
74541;SDS011;63015;45.378;20.360;2023-08-07T09:03:29;2.67;;;0.50;;
74541;SDS011;63015;45.378;20.360;2023-08-07T09:05:30;1.70;;;0.50;;
74541;SDS011;63015;45.378;20.360;2023-08-07T09:07:31;4.10;;;0.60;;
74541;SDS011;63015;45.378;20.360;2023-08-07T09:09:33;2.35;;;0.70;;
74541;SDS011;63015;45.378;20.360;2023-08-07T09:11:36;2.13;;;0.60;;
74541;SDS011;63015;45.378;20.360;2023-08-07T09:13:37;2.13;;;0.57;;
74541;SDS011;63015;45.378;20.360;2023-08-07T09:15:38;2.67;;;0.40;;
74541;SDS011;63015;45.378;20.360;2023-08-07T09:17:40;2.35;;;0.73;;
74541;SDS011;63015;45.378;20.360;2023-08-07T09:19:42;2.30;;;0.50;;
74541;SDS011;63015;45.378;20.360;2023-08-07T09:21:43;2.67;;;0.70;;
74541;SDS011;63015;45.378;20.360;2023-08-07T09:23:44;1.75;;;0.52;;
74541;SDS011;63015;45.378;20.360;2023-08-07T09:25:44;2.08;;;0.82;;
74541;SDS011;63015;45.378;20.360;2023-08-07T09:27:45;1.98;;;0.73;;
74541;SDS011;63015;45.378;20.360;2023-08-07T09:29:46;2.38;;;1.02;;
74541;SDS011;63015;45.378;20.360;2023-08-07T09:31:47;1.77;;;0.60;;
74541;SDS011;63015;45.378;20.360;2023-08-07T09:33:48;2.03;;;0.73;;
74541;SDS011;63015;45.378;20.360;2023-08-07T09:35:49;2.55;;;0.77;;
74541;SDS011;63015;45.378;20.360;2023-08-07T09:37:50;3.58;;;0.82;;
74541;SDS011;63015;45.378;20.360;2023-08-07T09:39:51;1.67;;;0.50;;
74541;SDS011;63015;45.378;20.360;2023-08-07T09:41:51;2.60;;;0.60;;
74541;SDS011;63015;45.378;20.360;2023-08-07T09:43:53;2.00;;;0.68;;
74541;SDS011;63015;45.378;20.360;2023-08-07T09:48:05;2.50;;;0.57;;
74541;SDS011;63015;45.378;20.360;2023-08-07T09:50:15;1.75;;;0.63;;
74541;SDS011;63015;45.378;20.360;2023-08-07T09:52:17;4.32;;;0.95;;
74541;SDS011;63015;45.378;20.360;2023-08-07T09:54:18;1.92;;;0.65;;
74541;SDS011;63015;45.378;20.360;2023-08-07T09:56:19;2.03;;;0.70;;
74541;SDS011;63015;45.378;20.360;2023-08-07T09:58:19;2.22;;;0.68;;
74541;SDS011;63015;45.378;20.360;2023-08-07T10:00:20;3.67;;;0.73;;
74541;SDS011;63015;45.378;20.360;2023-08-07T10:02:21;2.45;;;0.82;;
74541;SDS011;63015;45.378;20.360;2023-08-07T10:04:22;2.42;;;0.70;;
74541;SDS011;63015;45.378;20.360;2023-08-07T10:06:25;2.15;;;0.70;;
74541;SDS011;63015;45.378;20.360;2023-08-07T10:08:26;1.52;;;0.55;;
74541;SDS011;63015;45.378;20.360;2023-08-07T10:10:27;1.70;;;0.50;;
74541;SDS011;63015;45.378;20.360;2023-08-07T10:12:28;2.72;;;0.52;;
74541;SDS011;63015;45.378;20.360;2023-08-07T10:14:30;2.10;;;0.52;;
74541;SDS011;63015;45.378;20.360;2023-08-07T10:16:30;2.53;;;0.60;;
74541;SDS011;63015;45.378;20.360;2023-08-07T10:18:32;2.15;;;0.60;;
74541;SDS011;63015;45.378;20.360;2023-08-07T10:20:32;1.40;;;0.40;;
74541;SDS011;63015;45.378;20.360;2023-08-07T10:22:33;2.28;;;0.60;;
74541;SDS011;63015;45.378;20.360;2023-08-07T10:24:38;1.63;;;0.40;;
74541;SDS011;63015;45.378;20.360;2023-08-07T10:26:43;1.17;;;0.32;;
74541;SDS011;63015;45.378;20.360;2023-08-07T10:28:45;2.00;;;0.60;;
74541;SDS011;63015;45.378;20.360;2023-08-07T10:30:47;2.03;;;0.40;;
74541;SDS011;63015;45.378;20.360;2023-08-07T10:32:49;2.30;;;1.10;;
74541;SDS011;63015;45.378;20.360;2023-08-07T10:34:50;1.92;;;0.57;;
74541;SDS011;63015;45.378;20.360;2023-08-07T10:36:52;1.30;;;0.45;;
74541;SDS011;63015;45.378;20.360;2023-08-07T10:39:05;1.65;;;0.43;;
74541;SDS011;63015;45.378;20.360;2023-08-07T10:41:08;1.73;;;0.50;;
74541;SDS011;63015;45.378;20.360;2023-08-07T10:43:13;2.75;;;1.05;;
74541;SDS011;63015;45.378;20.360;2023-08-07T10:45:18;2.40;;;0.73;;
74541;SDS011;63015;45.378;20.360;2023-08-07T10:47:33;1.67;;;0.50;;
74541;SDS011;63015;45.378;20.360;2023-08-07T10:49:38;2.28;;;0.50;;
74541;SDS011;63015;45.378;20.360;2023-08-07T10:51:40;1.20;;;0.43;;
74541;SDS011;63015;45.378;20.360;2023-08-07T10:53:41;2.13;;;0.45;;
74541;SDS011;63015;45.378;20.360;2023-08-07T10:55:47;1.90;;;0.57;;
74541;SDS011;63015;45.378;20.360;2023-08-07T10:57:48;2.70;;;0.60;;
74541;SDS011;63015;45.378;20.360;2023-08-07T10:59:49;2.30;;;0.65;;
74541;SDS011;63015;45.378;20.360;2023-08-07T11:01:51;2.00;;;0.50;;
74541;SDS011;63015;45.378;20.360;2023-08-07T11:05:57;2.00;;;0.77;;
74541;SDS011;63015;45.378;20.360;2023-08-07T11:07:58;1.98;;;0.90;;
74541;SDS011;63015;45.378;20.360;2023-08-07T11:09:59;1.65;;;0.50;;
74541;SDS011;63015;45.378;20.360;2023-08-07T11:11:59;1.30;;;0.50;;
74541;SDS011;63015;45.378;20.360;2023-08-07T11:14:00;1.80;;;0.60;;
74541;SDS011;63015;45.378;20.360;2023-08-07T11:16:04;2.55;;;0.70;;
74541;SDS011;63015;45.378;20.360;2023-08-07T11:18:06;2.72;;;0.82;;
74541;SDS011;63015;45.378;20.360;2023-08-07T11:20:08;2.90;;;0.60;;
74541;SDS011;63015;45.378;20.360;2023-08-07T11:22:10;2.20;;;0.90;;
74541;SDS011;63015;45.378;20.360;2023-08-07T11:24:12;1.83;;;0.60;;
74541;SDS011;63015;45.378;20.360;2023-08-07T11:26:14;2.17;;;0.60;;
74541;SDS011;63015;45.378;20.360;2023-08-07T11:28:17;3.25;;;0.70;;
74541;SDS011;63015;45.378;20.360;2023-08-07T11:30:21;1.70;;;0.50;;
74541;SDS011;63015;45.378;20.360;2023-08-07T11:32:23;1.70;;;0.60;;
74541;SDS011;63015;45.378;20.360;2023-08-07T11:34:23;2.00;;;0.63;;
74541;SDS011;63015;45.378;20.360;2023-08-07T11:36:25;2.55;;;0.80;;
74541;SDS011;63015;45.378;20.360;2023-08-07T11:40:34;2.25;;;0.55;;
74541;SDS011;63015;45.378;20.360;2023-08-07T11:42:35;2.63;;;1.05;;
74541;SDS011;63015;45.378;20.360;2023-08-07T11:44:36;1.77;;;0.40;;
74541;SDS011;63015;45.378;20.360;2023-08-07T11:46:36;1.60;;;0.52;;
74541;SDS011;63015;45.378;20.360;2023-08-07T11:48:37;2.92;;;0.80;;
74541;SDS011;63015;45.378;20.360;2023-08-07T11:50:40;1.92;;;0.60;;
74541;SDS011;63015;45.378;20.360;2023-08-07T11:52:40;1.92;;;0.52;;
74541;SDS011;63015;45.378;20.360;2023-08-07T11:54:41;3.17;;;0.50;;
74541;SDS011;63015;45.378;20.360;2023-08-07T11:56:42;4.20;;;0.70;;
74541;SDS011;63015;45.378;20.360;2023-08-07T11:58:47;2.60;;;0.60;;
74541;SDS011;63015;45.378;20.360;2023-08-07T12:00:48;2.00;;;0.73;;
74541;SDS011;63015;45.378;20.360;2023-08-07T12:02:49;1.60;;;0.50;;
74541;SDS011;63015;45.378;20.360;2023-08-07T12:04:50;1.85;;;0.70;;
74541;SDS011;63015;45.378;20.360;2023-08-07T12:06:52;2.58;;;0.77;;
74541;SDS011;63015;45.378;20.360;2023-08-07T12:08:55;2.90;;;0.63;;